sensor_id;sensor_type;location;lat;lon;timestamp;temperature;humidity
22795;DHT22;11564;50.920;11.612;2022-09-12T00:00:43;10.70;99.90
22795;DHT22;11564;50.920;11.612;2022-09-12T00:03:09;10.70;99.90
22795;DHT22;11564;50.920;11.612;2022-09-12T00:05:39;10.70;99.90
22795;DHT22;11564;50.920;11.612;2022-09-12T00:08:05;10.70;99.90
22795;DHT22;11564;50.920;11.612;2022-09-12T00:10:30;10.80;99.90
22795;DHT22;11564;50.920;11.612;2022-09-12T00:12:56;10.90;99.90
22795;DHT22;11564;50.920;11.612;2022-09-12T00:15:21;10.90;99.90
22795;DHT22;11564;50.920;11.612;2022-09-12T00:17:47;11.00;99.90
22795;DHT22;11564;50.920;11.612;2022-09-12T00:20:12;11.10;99.90
22795;DHT22;11564;50.920;11.612;2022-09-12T00:22:38;11.10;99.90
22795;DHT22;11564;50.920;11.612;2022-09-12T00:25:03;11.10;99.90
22795;DHT22;11564;50.920;11.612;2022-09-12T00:27:29;11.10;99.90
22795;DHT22;11564;50.920;11.612;2022-09-12T00:29:55;11.20;99.90
22795;DHT22;11564;50.920;11.612;2022-09-12T00:32:20;11.30;99.90
22795;DHT22;11564;50.920;11.612;2022-09-12T00:34:46;11.30;99.90
22795;DHT22;11564;50.920;11.612;2022-09-12T00:37:11;11.30;99.90
22795;DHT22;11564;50.920;11.612;2022-09-12T00:39:37;11.40;99.90
22795;DHT22;11564;50.920;11.612;2022-09-12T00:42:02;11.30;99.90
22795;DHT22;11564;50.920;11.612;2022-09-12T00:46:55;11.30;99.90
22795;DHT22;11564;50.920;11.612;2022-09-12T00:51:54;11.20;99.90
22795;DHT22;11564;50.920;11.612;2022-09-12T00:54:21;11.20;99.90
22795;DHT22;11564;50.920;11.612;2022-09-12T00:56:48;11.20;99.90
22795;DHT22;11564;50.920;11.612;2022-09-12T00:59:16;11.10;99.90
22795;DHT22;11564;50.920;11.612;2022-09-12T01:01:43;11.00;99.90
22795;DHT22;11564;50.920;11.612;2022-09-12T01:04:09;10.80;99.90
22795;DHT22;11564;50.920;11.612;2022-09-12T01:06:36;10.60;99.90
22795;DHT22;11564;50.920;11.612;2022-09-12T01:09:03;10.50;99.90
22795;DHT22;11564;50.920;11.612;2022-09-12T01:11:35;10.40;99.90
22795;DHT22;11564;50.920;11.612;2022-09-12T01:14:01;10.30;99.90
22795;DHT22;11564;50.920;11.612;2022-09-12T01:16:26;10.30;99.90
22795;DHT22;11564;50.920;11.612;2022-09-12T01:31:36;10.50;99.90
22795;DHT22;11564;50.920;11.612;2022-09-12T01:36:54;10.60;99.90
22795;DHT22;11564;50.920;11.612;2022-09-12T01:39:29;10.60;99.90
22795;DHT22;11564;50.920;11.612;2022-09-12T01:42:09;10.70;99.90
22795;DHT22;11564;50.920;11.612;2022-09-12T01:45:00;10.60;99.90
22795;DHT22;11564;50.920;11.612;2022-09-12T01:52:26;10.60;99.90
22795;DHT22;11564;50.920;11.612;2022-09-12T01:54:54;10.60;99.90
22795;DHT22;11564;50.920;11.612;2022-09-12T01:57:33;10.50;99.90
22795;DHT22;11564;50.920;11.612;2022-09-12T02:00:04;10.40;99.90
22795;DHT22;11564;50.920;11.612;2022-09-12T02:02:32;10.30;99.90
22795;DHT22;11564;50.920;11.612;2022-09-12T02:05:03;10.20;99.90
22795;DHT22;11564;50.920;11.612;2022-09-12T02:07:31;10.20;99.90
22795;DHT22;11564;50.920;11.612;2022-09-12T02:10:12;10.20;99.90
22795;DHT22;11564;50.920;11.612;2022-09-12T02:12:42;10.20;99.90
22795;DHT22;11564;50.920;11.612;2022-09-12T02:15:10;10.30;99.90
22795;DHT22;11564;50.920;11.612;2022-09-12T02:17:38;10.30;99.90
22795;DHT22;11564;50.920;11.612;2022-09-12T02:20:20;10.40;99.90
22795;DHT22;11564;50.920;11.612;2022-09-12T02:22:48;10.40;99.90
22795;DHT22;11564;50.920;11.612;2022-09-12T02:25:15;10.40;99.90
22795;DHT22;11564;50.920;11.612;2022-09-12T02:27:48;10.40;99.90
22795;DHT22;11564;50.920;11.612;2022-09-12T02:30:15;10.50;99.90
22795;DHT22;11564;50.920;11.612;2022-09-12T02:38:23;10.60;99.90
22795;DHT22;11564;50.920;11.612;2022-09-12T02:40:50;10.60;99.90
22795;DHT22;11564;50.920;11.612;2022-09-12T02:43:15;10.70;99.90
22795;DHT22;11564;50.920;11.612;2022-09-12T02:45:41;10.70;99.90
22795;DHT22;11564;50.920;11.612;2022-09-12T02:48:14;10.70;99.90
22795;DHT22;11564;50.920;11.612;2022-09-12T02:50:40;10.70;99.90
22795;DHT22;11564;50.920;11.612;2022-09-12T02:53:06;10.70;99.90
22795;DHT22;11564;50.920;11.612;2022-09-12T02:55:33;10.70;99.90
22795;DHT22;11564;50.920;11.612;2022-09-12T02:58:03;10.70;99.90
22795;DHT22;11564;50.920;11.612;2022-09-12T03:00:30;10.70;99.90
22795;DHT22;11564;50.920;11.612;2022-09-12T03:03:07;10.70;99.90
22795;DHT22;11564;50.920;11.612;2022-09-12T03:05:34;10.70;99.90
22795;DHT22;11564;50.920;11.612;2022-09-12T03:08:12;10.60;99.90
22795;DHT22;11564;50.920;11.612;2022-09-12T03:13:35;10.60;99.90
22795;DHT22;11564;50.920;11.612;2022-09-12T03:21:25;10.30;99.90
22795;DHT22;11564;50.920;11.612;2022-09-12T03:26:38;10.10;99.90
22795;DHT22;11564;50.920;11.612;2022-09-12T03:29:05;10.10;99.90
22795;DHT22;11564;50.920;11.612;2022-09-12T03:31:31;10.00;99.90
22795;DHT22;11564;50.920;11.612;2022-09-12T03:33:58;9.90;99.90
22795;DHT22;11564;50.920;11.612;2022-09-12T03:36:24;9.70;99.90
22795;DHT22;11564;50.920;11.612;2022-09-12T03:38:50;9.70;99.90
22795;DHT22;11564;50.920;11.612;2022-09-12T03:41:16;9.70;99.90
22795;DHT22;11564;50.920;11.612;2022-09-12T03:43:41;9.70;99.90
22795;DHT22;11564;50.920;11.612;2022-09-12T03:46:07;9.70;99.90
22795;DHT22;11564;50.920;11.612;2022-09-12T03:48:32;9.60;99.90
22795;DHT22;11564;50.920;11.612;2022-09-12T03:50:59;9.60;99.90
22795;DHT22;11564;50.920;11.612;2022-09-12T03:53:24;9.50;99.90
22795;DHT22;11564;50.920;11.612;2022-09-12T03:55:49;9.60;99.90
22795;DHT22;11564;50.920;11.612;2022-09-12T03:58:15;9.60;99.90
22795;DHT22;11564;50.920;11.612;2022-09-12T04:00:40;9.60;99.90
22795;DHT22;11564;50.920;11.612;2022-09-12T04:03:08;9.80;99.90
22795;DHT22;11564;50.920;11.612;2022-09-12T04:05:34;9.70;99.90
22795;DHT22;11564;50.920;11.612;2022-09-12T04:08:00;9.80;99.90
22795;DHT22;11564;50.920;11.612;2022-09-12T04:10:25;9.80;99.90
22795;DHT22;11564;50.920;11.612;2022-09-12T04:12:51;9.90;99.90
22795;DHT22;11564;50.920;11.612;2022-09-12T04:15:17;10.00;99.90
22795;DHT22;11564;50.920;11.612;2022-09-12T04:17:43;10.00;99.90
22795;DHT22;11564;50.920;11.612;2022-09-12T04:20:08;10.00;99.90
22795;DHT22;11564;50.920;11.612;2022-09-12T04:22:34;10.00;99.90
22795;DHT22;11564;50.920;11.612;2022-09-12T04:24:59;10.00;99.90
22795;DHT22;11564;50.920;11.612;2022-09-12T04:27:25;10.10;99.90
22795;DHT22;11564;50.920;11.612;2022-09-12T04:29:50;10.10;99.90
22795;DHT22;11564;50.920;11.612;2022-09-12T04:32:16;10.10;99.90
22795;DHT22;11564;50.920;11.612;2022-09-12T04:34:43;10.10;99.90
22795;DHT22;11564;50.920;11.612;2022-09-12T04:37:08;10.20;99.90
22795;DHT22;11564;50.920;11.612;2022-09-12T04:39:35;10.20;99.90
22795;DHT22;11564;50.920;11.612;2022-09-12T04:42:01;10.30;99.90
22795;DHT22;11564;50.920;11.612;2022-09-12T04:44:29;10.30;99.90
22795;DHT22;11564;50.920;11.612;2022-09-12T04:46:55;10.40;99.90
22795;DHT22;11564;50.920;11.612;2022-09-12T04:49:21;10.40;99.90
22795;DHT22;11564;50.920;11.612;2022-09-12T04:51:46;10.40;99.90
22795;DHT22;11564;50.920;11.612;2022-09-12T04:54:13;10.50;99.90
22795;DHT22;11564;50.920;11.612;2022-09-12T04:56:40;10.50;99.90
22795;DHT22;11564;50.920;11.612;2022-09-12T04:59:06;10.50;99.90
22795;DHT22;11564;50.920;11.612;2022-09-12T05:01:33;10.60;99.90
22795;DHT22;11564;50.920;11.612;2022-09-12T05:03:58;10.60;99.90
22795;DHT22;11564;50.920;11.612;2022-09-12T05:06:28;10.60;99.90
22795;DHT22;11564;50.920;11.612;2022-09-12T05:08:54;10.60;99.90
22795;DHT22;11564;50.920;11.612;2022-09-12T05:11:21;10.70;99.90
22795;DHT22;11564;50.920;11.612;2022-09-12T05:13:47;10.70;99.90
22795;DHT22;11564;50.920;11.612;2022-09-12T05:16:13;10.70;99.90
22795;DHT22;11564;50.920;11.612;2022-09-12T05:18:39;10.70;99.90
22795;DHT22;11564;50.920;11.612;2022-09-12T05:21:05;10.80;99.90
22795;DHT22;11564;50.920;11.612;2022-09-12T05:23:32;10.90;99.90
22795;DHT22;11564;50.920;11.612;2022-09-12T05:25:58;10.90;99.90
22795;DHT22;11564;50.920;11.612;2022-09-12T05:28:24;11.00;99.90
22795;DHT22;11564;50.920;11.612;2022-09-12T05:31:00;11.00;99.90
22795;DHT22;11564;50.920;11.612;2022-09-12T05:33:26;11.00;99.90
22795;DHT22;11564;50.920;11.612;2022-09-12T05:35:51;11.10;99.90
22795;DHT22;11564;50.920;11.612;2022-09-12T05:38:17;11.20;99.90
22795;DHT22;11564;50.920;11.612;2022-09-12T05:40:42;11.20;99.90
22795;DHT22;11564;50.920;11.612;2022-09-12T05:43:08;11.30;99.90
22795;DHT22;11564;50.920;11.612;2022-09-12T05:45:37;11.40;99.90
22795;DHT22;11564;50.920;11.612;2022-09-12T05:48:02;11.50;99.90
22795;DHT22;11564;50.920;11.612;2022-09-12T05:50:28;11.60;99.90
22795;DHT22;11564;50.920;11.612;2022-09-12T05:52:53;11.70;99.90
22795;DHT22;11564;50.920;11.612;2022-09-12T05:55:19;11.80;99.90
22795;DHT22;11564;50.920;11.612;2022-09-12T05:57:45;11.80;99.90
22795;DHT22;11564;50.920;11.612;2022-09-12T06:00:11;11.90;99.90
22795;DHT22;11564;50.920;11.612;2022-09-12T06:02:36;12.10;99.90
22795;DHT22;11564;50.920;11.612;2022-09-12T06:05:02;12.10;99.90
22795;DHT22;11564;50.920;11.612;2022-09-12T06:07:27;12.10;99.90
22795;DHT22;11564;50.920;11.612;2022-09-12T06:09:53;12.00;99.90
22795;DHT22;11564;50.920;11.612;2022-09-12T06:12:19;11.90;99.90
22795;DHT22;11564;50.920;11.612;2022-09-12T06:14:44;11.70;99.90
22795;DHT22;11564;50.920;11.612;2022-09-12T06:17:10;11.70;99.90
22795;DHT22;11564;50.920;11.612;2022-09-12T06:19:36;11.60;99.90
22795;DHT22;11564;50.920;11.612;2022-09-12T06:22:01;11.70;99.90
22795;DHT22;11564;50.920;11.612;2022-09-12T06:24:27;11.70;99.90
22795;DHT22;11564;50.920;11.612;2022-09-12T06:26:52;11.80;99.90
22795;DHT22;11564;50.920;11.612;2022-09-12T06:29:18;11.80;99.90
22795;DHT22;11564;50.920;11.612;2022-09-12T06:31:43;12.00;99.90
22795;DHT22;11564;50.920;11.612;2022-09-12T06:34:10;12.20;99.90
22795;DHT22;11564;50.920;11.612;2022-09-12T06:36:36;12.40;99.90
22795;DHT22;11564;50.920;11.612;2022-09-12T06:39:03;12.60;99.90
22795;DHT22;11564;50.920;11.612;2022-09-12T06:41:30;12.70;99.90
22795;DHT22;11564;50.920;11.612;2022-09-12T06:43:55;12.90;99.90
22795;DHT22;11564;50.920;11.612;2022-09-12T06:46:21;13.00;99.90
22795;DHT22;11564;50.920;11.612;2022-09-12T06:48:47;13.10;99.90
22795;DHT22;11564;50.920;11.612;2022-09-12T06:51:13;13.30;99.90
22795;DHT22;11564;50.920;11.612;2022-09-12T06:53:39;13.40;99.90
22795;DHT22;11564;50.920;11.612;2022-09-12T06:56:06;13.60;99.90
22795;DHT22;11564;50.920;11.612;2022-09-12T06:58:32;13.60;99.90
22795;DHT22;11564;50.920;11.612;2022-09-12T07:01:02;13.70;99.90
22795;DHT22;11564;50.920;11.612;2022-09-12T07:03:28;13.60;99.90
22795;DHT22;11564;50.920;11.612;2022-09-12T07:05:53;13.70;99.90
22795;DHT22;11564;50.920;11.612;2022-09-12T07:08:19;13.70;99.90
22795;DHT22;11564;50.920;11.612;2022-09-12T07:10:44;13.80;99.90
22795;DHT22;11564;50.920;11.612;2022-09-12T07:13:10;13.90;99.90
22795;DHT22;11564;50.920;11.612;2022-09-12T07:15:35;13.90;99.90
22795;DHT22;11564;50.920;11.612;2022-09-12T07:18:02;13.70;99.90
22795;DHT22;11564;50.920;11.612;2022-09-12T07:20:28;13.30;99.90
22795;DHT22;11564;50.920;11.612;2022-09-12T07:22:53;13.40;99.90
22795;DHT22;11564;50.920;11.612;2022-09-12T07:25:19;13.60;99.90
22795;DHT22;11564;50.920;11.612;2022-09-12T07:27:45;13.60;99.90
22795;DHT22;11564;50.920;11.612;2022-09-12T07:30:10;13.40;99.90
22795;DHT22;11564;50.920;11.612;2022-09-12T07:32:36;13.60;99.90
22795;DHT22;11564;50.920;11.612;2022-09-12T07:35:01;14.00;99.90
22795;DHT22;11564;50.920;11.612;2022-09-12T07:37:29;13.80;99.90
22795;DHT22;11564;50.920;11.612;2022-09-12T07:39:55;13.90;99.90
22795;DHT22;11564;50.920;11.612;2022-09-12T07:42:21;14.10;99.90
22795;DHT22;11564;50.920;11.612;2022-09-12T07:44:46;13.90;99.90
22795;DHT22;11564;50.920;11.612;2022-09-12T07:47:12;13.70;99.90
22795;DHT22;11564;50.920;11.612;2022-09-12T07:49:37;13.40;99.90
22795;DHT22;11564;50.920;11.612;2022-09-12T07:52:03;13.30;99.90
22795;DHT22;11564;50.920;11.612;2022-09-12T07:54:28;13.10;99.90
22795;DHT22;11564;50.920;11.612;2022-09-12T07:56:54;13.20;99.90
22795;DHT22;11564;50.920;11.612;2022-09-12T07:59:19;13.20;99.90
22795;DHT22;11564;50.920;11.612;2022-09-12T08:01:45;13.30;99.90
22795;DHT22;11564;50.920;11.612;2022-09-12T08:04:10;13.60;99.90
22795;DHT22;11564;50.920;11.612;2022-09-12T08:06:36;13.80;99.90
22795;DHT22;11564;50.920;11.612;2022-09-12T08:09:02;13.70;99.90
22795;DHT22;11564;50.920;11.612;2022-09-12T08:11:28;13.80;99.90
22795;DHT22;11564;50.920;11.612;2022-09-12T08:13:54;13.90;99.90
22795;DHT22;11564;50.920;11.612;2022-09-12T08:16:22;13.70;99.90
22795;DHT22;11564;50.920;11.612;2022-09-12T08:18:48;14.10;99.90
22795;DHT22;11564;50.920;11.612;2022-09-12T08:21:14;14.10;99.90
22795;DHT22;11564;50.920;11.612;2022-09-12T08:23:40;13.70;99.90
22795;DHT22;11564;50.920;11.612;2022-09-12T08:26:06;13.70;99.90
22795;DHT22;11564;50.920;11.612;2022-09-12T08:28:33;13.70;99.90
22795;DHT22;11564;50.920;11.612;2022-09-12T08:31:00;13.70;99.90
22795;DHT22;11564;50.920;11.612;2022-09-12T08:33:26;13.90;99.90
22795;DHT22;11564;50.920;11.612;2022-09-12T08:38:29;14.10;99.90
22795;DHT22;11564;50.920;11.612;2022-09-12T08:40:58;14.70;99.90
22795;DHT22;11564;50.920;11.612;2022-09-12T08:45:58;14.70;99.90
22795;DHT22;11564;50.920;11.612;2022-09-12T08:48:26;14.80;99.90
22795;DHT22;11564;50.920;11.612;2022-09-12T08:50:51;14.70;99.90
22795;DHT22;11564;50.920;11.612;2022-09-12T08:53:19;14.70;99.90
22795;DHT22;11564;50.920;11.612;2022-09-12T08:55:49;14.70;99.90
22795;DHT22;11564;50.920;11.612;2022-09-12T08:58:16;14.70;99.90
22795;DHT22;11564;50.920;11.612;2022-09-12T09:03:37;15.50;99.90
22795;DHT22;11564;50.920;11.612;2022-09-12T09:11:24;15.80;99.90
22795;DHT22;11564;50.920;11.612;2022-09-12T09:16:54;16.00;99.90
22795;DHT22;11564;50.920;11.612;2022-09-12T09:19:21;16.00;99.90
22795;DHT22;11564;50.920;11.612;2022-09-12T09:21:50;15.90;99.90
22795;DHT22;11564;50.920;11.612;2022-09-12T09:24:18;15.70;99.90
22795;DHT22;11564;50.920;11.612;2022-09-12T09:26:53;16.00;99.90
22795;DHT22;11564;50.920;11.612;2022-09-12T09:29:21;15.80;99.90
22795;DHT22;11564;50.920;11.612;2022-09-12T09:31:51;15.90;99.90
22795;DHT22;11564;50.920;11.612;2022-09-12T09:34:20;15.60;99.90
22795;DHT22;11564;50.920;11.612;2022-09-12T09:45:14;16.00;99.90
22795;DHT22;11564;50.920;11.612;2022-09-12T09:47:43;16.20;99.90
22795;DHT22;11564;50.920;11.612;2022-09-12T09:50:11;16.40;99.90
22795;DHT22;11564;50.920;11.612;2022-09-12T09:52:37;16.50;99.90
22795;DHT22;11564;50.920;11.612;2022-09-12T09:55:04;16.60;99.90
22795;DHT22;11564;50.920;11.612;2022-09-12T09:59:58;17.00;99.90
22795;DHT22;11564;50.920;11.612;2022-09-12T10:02:23;17.00;99.90
22795;DHT22;11564;50.920;11.612;2022-09-12T10:04:56;17.10;99.90
22795;DHT22;11564;50.920;11.612;2022-09-12T10:07:23;17.20;99.90
22795;DHT22;11564;50.920;11.612;2022-09-12T10:10:04;17.50;99.90
22795;DHT22;11564;50.920;11.612;2022-09-12T10:12:29;17.80;99.90
22795;DHT22;11564;50.920;11.612;2022-09-12T10:14:59;18.00;99.90
22795;DHT22;11564;50.920;11.612;2022-09-12T10:17:29;18.20;99.90
22795;DHT22;11564;50.920;11.612;2022-09-12T10:19:56;18.30;99.90
22795;DHT22;11564;50.920;11.612;2022-09-12T10:22:25;18.00;99.90
22795;DHT22;11564;50.920;11.612;2022-09-12T10:24:52;18.20;99.90
22795;DHT22;11564;50.920;11.612;2022-09-12T10:27:20;18.30;99.90
22795;DHT22;11564;50.920;11.612;2022-09-12T10:29:53;18.50;99.90
22795;DHT22;11564;50.920;11.612;2022-09-12T10:32:24;18.50;99.90
22795;DHT22;11564;50.920;11.612;2022-09-12T10:34:52;18.60;99.90
22795;DHT22;11564;50.920;11.612;2022-09-12T10:37:22;18.70;99.90
22795;DHT22;11564;50.920;11.612;2022-09-12T10:39:52;18.60;99.90
22795;DHT22;11564;50.920;11.612;2022-09-12T10:45:02;18.90;99.90
22795;DHT22;11564;50.920;11.612;2022-09-12T10:47:29;19.10;99.90
22795;DHT22;11564;50.920;11.612;2022-09-12T10:50:05;19.30;99.90
22795;DHT22;11564;50.920;11.612;2022-09-12T10:52:40;19.60;99.90
22795;DHT22;11564;50.920;11.612;2022-09-12T10:55:10;19.90;99.90
22795;DHT22;11564;50.920;11.612;2022-09-12T10:57:55;20.40;99.90
22795;DHT22;11564;50.920;11.612;2022-09-12T11:00:25;20.50;99.90
22795;DHT22;11564;50.920;11.612;2022-09-12T11:10:36;20.50;99.90
22795;DHT22;11564;50.920;11.612;2022-09-12T11:16:01;20.70;99.90
22795;DHT22;11564;50.920;11.612;2022-09-12T11:18:43;20.50;99.90
22795;DHT22;11564;50.920;11.612;2022-09-12T11:23:44;21.30;99.90
22795;DHT22;11564;50.920;11.612;2022-09-12T11:28:56;21.90;99.90
22795;DHT22;11564;50.920;11.612;2022-09-12T11:31:39;22.40;99.90
22795;DHT22;11564;50.920;11.612;2022-09-12T11:34:07;22.90;99.90
22795;DHT22;11564;50.920;11.612;2022-09-12T11:39:12;22.00;99.90
22795;DHT22;11564;50.920;11.612;2022-09-12T11:41:40;22.00;99.90
22795;DHT22;11564;50.920;11.612;2022-09-12T11:46:33;22.40;99.90
22795;DHT22;11564;50.920;11.612;2022-09-12T11:49:05;22.70;99.90
22795;DHT22;11564;50.920;11.612;2022-09-12T11:54:35;22.70;99.90
22795;DHT22;11564;50.920;11.612;2022-09-12T11:59:45;23.90;99.90
22795;DHT22;11564;50.920;11.612;2022-09-12T12:02:14;24.50;99.90
22795;DHT22;11564;50.920;11.612;2022-09-12T12:04:55;25.00;99.90
22795;DHT22;11564;50.920;11.612;2022-09-12T12:07:23;25.60;97.10
22795;DHT22;11564;50.920;11.612;2022-09-12T12:09:50;25.60;97.10
22795;DHT22;11564;50.920;11.612;2022-09-12T12:12:18;25.90;95.80
22795;DHT22;11564;50.920;11.612;2022-09-12T12:14:45;26.30;96.60
22795;DHT22;11564;50.920;11.612;2022-09-12T12:17:18;26.20;93.90
22795;DHT22;11564;50.920;11.612;2022-09-12T12:19:45;26.10;92.10
22795;DHT22;11564;50.920;11.612;2022-09-12T12:22:15;26.50;92.10
22795;DHT22;11564;50.920;11.612;2022-09-12T12:27:22;27.20;92.50
22795;DHT22;11564;50.920;11.612;2022-09-12T12:29:47;27.50;90.70
22795;DHT22;11564;50.920;11.612;2022-09-12T12:34:42;28.10;89.40
22795;DHT22;11564;50.920;11.612;2022-09-12T12:42:09;27.70;78.20
22795;DHT22;11564;50.920;11.612;2022-09-12T12:49:56;28.40;80.10
22795;DHT22;11564;50.920;11.612;2022-09-12T12:52:23;28.60;75.20
22795;DHT22;11564;50.920;11.612;2022-09-12T12:54:51;28.00;74.90
22795;DHT22;11564;50.920;11.612;2022-09-12T12:57:22;27.40;78.10
22795;DHT22;11564;50.920;11.612;2022-09-12T13:02:23;28.50;76.20
22795;DHT22;11564;50.920;11.612;2022-09-12T13:04:49;28.50;77.50
22795;DHT22;11564;50.920;11.612;2022-09-12T13:07:26;28.10;75.20
22795;DHT22;11564;50.920;11.612;2022-09-12T13:09:52;27.90;73.90
22795;DHT22;11564;50.920;11.612;2022-09-12T13:12:20;27.90;75.70
22795;DHT22;11564;50.920;11.612;2022-09-12T13:17:20;28.70;76.80
22795;DHT22;11564;50.920;11.612;2022-09-12T13:19:47;28.70;72.30
22795;DHT22;11564;50.920;11.612;2022-09-12T13:22:13;28.90;71.20
22795;DHT22;11564;50.920;11.612;2022-09-12T13:24:43;28.80;72.40
22795;DHT22;11564;50.920;11.612;2022-09-12T13:27:19;28.40;72.60
22795;DHT22;11564;50.920;11.612;2022-09-12T13:29:45;28.30;77.10
22795;DHT22;11564;50.920;11.612;2022-09-12T13:32:11;27.80;75.20
22795;DHT22;11564;50.920;11.612;2022-09-12T13:34:41;27.10;73.50
22795;DHT22;11564;50.920;11.612;2022-09-12T13:39:46;27.10;76.70
22795;DHT22;11564;50.920;11.612;2022-09-12T13:45:02;27.20;78.90
22795;DHT22;11564;50.920;11.612;2022-09-12T13:47:34;26.50;79.80
22795;DHT22;11564;50.920;11.612;2022-09-12T13:50:00;26.70;80.30
22795;DHT22;11564;50.920;11.612;2022-09-12T13:52:30;27.00;77.90
22795;DHT22;11564;50.920;11.612;2022-09-12T13:54:57;27.00;73.50
22795;DHT22;11564;50.920;11.612;2022-09-12T13:57:27;26.80;73.90
22795;DHT22;11564;50.920;11.612;2022-09-12T13:59:54;26.60;72.90
22795;DHT22;11564;50.920;11.612;2022-09-12T14:02:22;27.70;75.20
22795;DHT22;11564;50.920;11.612;2022-09-12T14:04:48;28.90;74.50
22795;DHT22;11564;50.920;11.612;2022-09-12T14:10:20;30.80;68.40
22795;DHT22;11564;50.920;11.612;2022-09-12T14:12:47;30.70;67.10
22795;DHT22;11564;50.920;11.612;2022-09-12T14:15:19;31.20;69.20
22795;DHT22;11564;50.920;11.612;2022-09-12T14:17:48;31.30;65.60
22795;DHT22;11564;50.920;11.612;2022-09-12T14:20:16;31.30;65.20
22795;DHT22;11564;50.920;11.612;2022-09-12T14:22:43;30.30;61.30
22795;DHT22;11564;50.920;11.612;2022-09-12T14:25:15;29.20;67.40
22795;DHT22;11564;50.920;11.612;2022-09-12T14:27:41;28.80;70.20
22795;DHT22;11564;50.920;11.612;2022-09-12T14:30:19;28.20;68.90
22795;DHT22;11564;50.920;11.612;2022-09-12T14:35:29;27.60;74.40
22795;DHT22;11564;50.920;11.612;2022-09-12T14:37:56;27.50;75.70
22795;DHT22;11564;50.920;11.612;2022-09-12T14:40:30;27.50;77.80
22795;DHT22;11564;50.920;11.612;2022-09-12T14:42:56;27.70;74.40
22795;DHT22;11564;50.920;11.612;2022-09-12T14:45:28;27.60;77.50
22795;DHT22;11564;50.920;11.612;2022-09-12T14:47:55;27.30;79.00
22795;DHT22;11564;50.920;11.612;2022-09-12T14:50:25;26.90;75.00
22795;DHT22;11564;50.920;11.612;2022-09-12T14:55:56;26.10;79.40
22795;DHT22;11564;50.920;11.612;2022-09-12T14:58:23;26.00;81.80
22795;DHT22;11564;50.920;11.612;2022-09-12T15:00:54;25.90;80.10
22795;DHT22;11564;50.920;11.612;2022-09-12T15:03:24;25.80;81.50
22795;DHT22;11564;50.920;11.612;2022-09-12T15:05:50;25.60;81.20
22795;DHT22;11564;50.920;11.612;2022-09-12T15:08:15;25.50;84.50
22795;DHT22;11564;50.920;11.612;2022-09-12T15:10:41;25.50;82.80
22795;DHT22;11564;50.920;11.612;2022-09-12T15:15:32;24.90;82.80
22795;DHT22;11564;50.920;11.612;2022-09-12T15:17:58;24.80;84.70
22795;DHT22;11564;50.920;11.612;2022-09-12T15:20:23;24.70;84.30
22795;DHT22;11564;50.920;11.612;2022-09-12T15:22:49;24.40;83.50
22795;DHT22;11564;50.920;11.612;2022-09-12T15:25:15;24.10;87.40
22795;DHT22;11564;50.920;11.612;2022-09-12T15:27:41;24.00;88.30
22795;DHT22;11564;50.920;11.612;2022-09-12T15:30:07;24.00;90.10
22795;DHT22;11564;50.920;11.612;2022-09-12T15:32:34;23.90;90.50
22795;DHT22;11564;50.920;11.612;2022-09-12T15:34:59;23.90;90.00
22795;DHT22;11564;50.920;11.612;2022-09-12T15:37:24;23.80;90.40
22795;DHT22;11564;50.920;11.612;2022-09-12T15:39:50;24.10;89.50
22795;DHT22;11564;50.920;11.612;2022-09-12T15:42:16;24.70;87.50
22795;DHT22;11564;50.920;11.612;2022-09-12T15:44:42;24.90;86.80
22795;DHT22;11564;50.920;11.612;2022-09-12T15:47:11;25.10;87.70
22795;DHT22;11564;50.920;11.612;2022-09-12T15:49:37;25.50;86.30
22795;DHT22;11564;50.920;11.612;2022-09-12T15:52:03;25.80;85.50
22795;DHT22;11564;50.920;11.612;2022-09-12T15:54:29;26.20;83.10
22795;DHT22;11564;50.920;11.612;2022-09-12T15:56:54;27.00;80.30
22795;DHT22;11564;50.920;11.612;2022-09-12T15:59:19;27.50;79.80
22795;DHT22;11564;50.920;11.612;2022-09-12T16:01:45;27.50;81.00
22795;DHT22;11564;50.920;11.612;2022-09-12T16:04:21;27.30;78.60
22795;DHT22;11564;50.920;11.612;2022-09-12T16:06:48;27.00;80.20
22795;DHT22;11564;50.920;11.612;2022-09-12T16:09:14;26.60;81.20
22795;DHT22;11564;50.920;11.612;2022-09-12T16:11:39;26.10;80.10
22795;DHT22;11564;50.920;11.612;2022-09-12T16:14:05;26.00;81.60
22795;DHT22;11564;50.920;11.612;2022-09-12T16:16:31;26.00;80.20
22795;DHT22;11564;50.920;11.612;2022-09-12T16:18:56;25.80;81.20
22795;DHT22;11564;50.920;11.612;2022-09-12T16:21:22;25.60;82.50
22795;DHT22;11564;50.920;11.612;2022-09-12T16:23:47;25.30;84.20
22795;DHT22;11564;50.920;11.612;2022-09-12T16:26:13;25.40;83.50
22795;DHT22;11564;50.920;11.612;2022-09-12T16:28:38;25.20;83.30
22795;DHT22;11564;50.920;11.612;2022-09-12T16:31:05;25.10;83.10
22795;DHT22;11564;50.920;11.612;2022-09-12T16:33:31;24.80;84.70
22795;DHT22;11564;50.920;11.612;2022-09-12T16:36:00;24.30;86.40
22795;DHT22;11564;50.920;11.612;2022-09-12T16:38:26;23.80;89.80
22795;DHT22;11564;50.920;11.612;2022-09-12T16:40:57;23.30;90.90
22795;DHT22;11564;50.920;11.612;2022-09-12T16:43:23;22.70;91.30
22795;DHT22;11564;50.920;11.612;2022-09-12T16:45:48;22.30;92.60
22795;DHT22;11564;50.920;11.612;2022-09-12T16:48:14;21.90;93.30
22795;DHT22;11564;50.920;11.612;2022-09-12T16:50:39;21.60;94.00
22795;DHT22;11564;50.920;11.612;2022-09-12T16:53:05;21.20;94.70
22795;DHT22;11564;50.920;11.612;2022-09-12T16:55:31;20.70;96.30
22795;DHT22;11564;50.920;11.612;2022-09-12T16:57:56;20.40;96.90
22795;DHT22;11564;50.920;11.612;2022-09-12T17:00:21;20.00;97.70
22795;DHT22;11564;50.920;11.612;2022-09-12T17:02:47;19.40;99.60
22795;DHT22;11564;50.920;11.612;2022-09-12T17:05:13;18.90;99.90
22795;DHT22;11564;50.920;11.612;2022-09-12T17:07:40;18.60;99.90
22795;DHT22;11564;50.920;11.612;2022-09-12T17:10:06;18.30;99.90
22795;DHT22;11564;50.920;11.612;2022-09-12T17:12:31;18.10;99.90
22795;DHT22;11564;50.920;11.612;2022-09-12T17:14:57;17.90;99.90
22795;DHT22;11564;50.920;11.612;2022-09-12T17:17:22;17.70;99.90
22795;DHT22;11564;50.920;11.612;2022-09-12T17:19:48;17.50;99.90
22795;DHT22;11564;50.920;11.612;2022-09-12T17:22:14;17.30;99.90
22795;DHT22;11564;50.920;11.612;2022-09-12T17:24:39;17.20;99.90
22795;DHT22;11564;50.920;11.612;2022-09-12T17:27:04;17.00;99.90
22795;DHT22;11564;50.920;11.612;2022-09-12T17:29:30;16.80;99.90
22795;DHT22;11564;50.920;11.612;2022-09-12T17:31:56;16.50;99.90
22795;DHT22;11564;50.920;11.612;2022-09-12T17:34:21;16.30;99.90